createdAt,value
2023-03-23T16:00:01.414Z,99580.72
2023-03-23T16:02:29.865Z,99581.09
2023-03-23T16:04:58.311Z,99573.72
2023-03-23T16:07:26.876Z,99573.16
2023-03-23T16:09:55.196Z,99562.88
2023-03-23T16:12:23.756Z,99558.06
2023-03-23T16:14:55.117Z,99557.03
2023-03-23T16:17:26.179Z,99557.72
2023-03-23T16:19:54.414Z,99560.69
2023-03-23T16:22:22.922Z,99561.50
2023-03-23T16:24:51.362Z,99566.88
2023-03-23T16:27:23.745Z,99571.56
2023-03-23T16:30:03.794Z,99581.88
2023-03-23T16:35:00.442Z,99595.03
2023-03-23T16:37:33.194Z,99583.91
2023-03-23T16:40:03.831Z,99570.97
2023-03-23T16:42:34.110Z,99581.44
2023-03-23T16:45:04.218Z,99583.25
2023-03-23T16:47:33.028Z,99579.91
2023-03-23T16:50:02.604Z,99577.75
2023-03-23T16:52:31.049Z,99582.44
2023-03-23T16:54:59.571Z,99576.72
2023-03-23T16:57:28.699Z,99580.25
2023-03-23T16:59:58.411Z,99582.53
2023-03-23T17:02:28.263Z,99599.84
2023-03-23T17:04:56.845Z,99603.25
2023-03-23T17:07:25.540Z,99607.59
2023-03-23T17:09:54.493Z,99600.38
2023-03-23T17:12:22.884Z,99607.38
2023-03-23T17:14:51.138Z,99617.22
2023-03-23T17:17:19.546Z,99619.03
2023-03-23T17:19:49.445Z,99617.28
2023-03-23T17:22:18.216Z,99622.25
2023-03-23T17:24:47.645Z,99623.38
2023-03-23T17:27:16.742Z,99618.56
2023-03-23T17:29:45.439Z,99616.03
2023-03-23T17:32:17.092Z,99623.75
2023-03-23T17:34:45.836Z,99617.88
2023-03-23T17:37:15.755Z,99623.22
2023-03-23T17:39:45.294Z,99628.91
2023-03-23T17:42:15.514Z,99623.88
2023-03-23T17:44:44.396Z,99625.28
2023-03-23T17:47:12.778Z,99620.59
2023-03-23T17:49:41.191Z,99616.38
2023-03-23T17:52:09.632Z,99610.09
2023-03-23T17:54:39.218Z,99618.13
2023-03-23T17:57:07.621Z,99622.88
2023-03-23T17:59:35.915Z,99626.22
2023-03-23T18:02:04.163Z,99612.69
2023-03-23T18:04:32.538Z,99631.44
2023-03-23T18:07:01.258Z,99642.97
2023-03-23T18:09:29.777Z,99621.09
2023-03-23T18:12:01.702Z,99620.06
2023-03-23T18:14:30.174Z,99605.16
2023-03-23T18:16:58.464Z,99597.59
2023-03-23T18:19:26.839Z,99591.31
2023-03-23T18:21:55.684Z,99594.06
2023-03-23T18:24:24.049Z,99585.69
2023-03-23T18:26:52.599Z,99591.84
2023-03-23T18:29:22.472Z,99586.97
2023-03-23T18:31:50.750Z,99572.41
2023-03-23T18:34:19.003Z,99578.75
2023-03-23T18:36:48.580Z,99572.78
2023-03-23T18:39:17.022Z,99567.63
2023-03-23T18:41:45.404Z,99566.19
2023-03-23T18:44:15.324Z,99568.63
2023-03-23T18:46:45.541Z,99573.06
2023-03-23T18:49:14.036Z,99567.97
2023-03-23T18:51:42.284Z,99572.78
2023-03-23T18:54:10.993Z,99569.41
2023-03-23T18:56:39.711Z,99566.13
2023-03-23T18:59:07.909Z,99565.97
2023-03-23T19:01:36.220Z,99569.59
2023-03-23T19:04:07.857Z,99572.66
2023-03-23T19:06:38.045Z,99567.63
2023-03-23T19:09:07.190Z,99565.00
2023-03-23T19:11:36.072Z,99559.28
2023-03-23T19:14:05.594Z,99547.31
2023-03-23T19:16:35.943Z,99549.69
2023-03-23T19:19:08.139Z,99544.66
2023-03-23T19:21:37.580Z,99525.28
2023-03-23T19:24:07.260Z,99525.94
2023-03-23T19:26:38.355Z,99538.66
2023-03-23T19:31:38.635Z,99539.56
2023-03-23T19:34:08.866Z,99542.38
2023-03-23T19:36:37.961Z,99532.81
2023-03-23T19:39:07.565Z,99534.50
2023-03-23T19:41:36.379Z,99534.81
2023-03-23T19:44:05.911Z,99528.53
2023-03-23T19:46:34.382Z,99525.59
2023-03-23T19:49:03.574Z,99525.13
2023-03-23T19:51:33.474Z,99510.16
2023-03-23T19:54:02.073Z,99510.97
2023-03-23T19:56:30.958Z,99512.56
2023-03-23T19:59:00.222Z,99499.06
2023-03-23T20:01:29.255Z,99505.28
2023-03-23T20:04:00.317Z,99501.16
2023-03-23T20:06:29.818Z,99500.25
2023-03-23T20:09:00.713Z,99501.88
2023-03-23T20:11:30.509Z,99501.63
2023-03-23T20:13:59.182Z,99491.13
2023-03-23T20:16:29.131Z,99485.81
2023-03-23T20:19:00.103Z,99501.25
2023-03-23T20:21:29.420Z,99483.53
2023-03-23T20:23:59.546Z,99482.34
2023-03-23T20:26:34.468Z,99486.47
2023-03-23T20:29:03.456Z,99473.25
2023-03-23T20:31:35.878Z,99476.91
2023-03-23T20:34:07.241Z,99473.75
2023-03-23T20:36:37.356Z,99469.41
2023-03-23T20:39:10.654Z,99459.69
2023-03-23T20:41:40.332Z,99465.06
2023-03-23T20:44:13.683Z,99463.97
2023-03-23T20:46:42.920Z,99457.66
2023-03-23T20:49:11.429Z,99443.16
2023-03-23T20:51:40.103Z,99450.72
2023-03-23T20:54:10.260Z,99439.94
2023-03-23T20:56:40.534Z,99447.53
2023-03-23T20:59:09.202Z,99436.56
2023-03-23T21:01:40.059Z,99448.00
2023-03-23T21:04:15.512Z,99453.50
2023-03-23T21:06:45.350Z,99436.78
2023-03-23T21:09:16.094Z,99423.19
2023-03-23T21:11:45.045Z,99430.16
2023-03-23T21:14:13.666Z,99419.91
2023-03-23T21:16:42.963Z,99421.72
2023-03-23T21:19:12.297Z,99434.28
2023-03-23T21:21:55.777Z,99426.41
2023-03-23T21:24:28.640Z,99419.78
2023-03-23T21:26:58.128Z,99410.28
2023-03-23T21:29:27.355Z,99419.56
2023-03-23T21:32:07.427Z,99402.38
2023-03-23T21:34:37.363Z,99418.97
2023-03-23T21:37:05.688Z,99406.84
2023-03-23T21:39:36.191Z,99413.94
2023-03-23T21:42:06.841Z,99412.47
2023-03-23T21:44:35.780Z,99415.06
2023-03-23T21:47:04.987Z,99407.84
2023-03-23T21:49:34.644Z,99404.88
2023-03-23T21:52:09.537Z,99399.53
2023-03-23T21:54:41.179Z,99401.53
2023-03-23T21:57:09.900Z,99411.34
2023-03-23T21:59:41.912Z,99396.66
2023-03-23T22:02:12.607Z,99391.59
2023-03-23T22:04:43.735Z,99399.34
2023-03-23T22:07:13.665Z,99398.94
2023-03-23T22:09:45.116Z,99388.00
2023-03-23T22:12:14.520Z,99400.06
2023-03-23T22:14:45.792Z,99386.78
2023-03-23T22:17:14.626Z,99393.19
2023-03-23T22:19:43.638Z,99390.41
2023-03-23T22:22:12.088Z,99386.63
2023-03-23T22:24:40.562Z,99376.22
2023-03-23T22:27:10.173Z,99380.00
2023-03-23T22:29:39.487Z,99371.00
2023-03-23T22:32:07.856Z,99376.50
2023-03-23T22:34:36.187Z,99365.56
2023-03-23T22:37:06.885Z,99381.00
2023-03-23T22:39:35.416Z,99370.41
2023-03-23T22:42:03.664Z,99357.94
2023-03-23T22:44:33.719Z,99359.06
2023-03-23T22:47:02.466Z,99368.09
2023-03-23T22:49:30.899Z,99368.25
2023-03-23T22:51:59.160Z,99369.53
2023-03-23T22:54:27.575Z,99352.41
2023-03-23T22:56:56.006Z,99360.41
2023-03-23T22:59:24.593Z,99350.31
2023-03-23T23:01:54.384Z,99348.06
2023-03-23T23:04:22.973Z,99339.59
2023-03-23T23:06:55.459Z,99341.38
2023-03-23T23:09:31.563Z,99340.75
2023-03-23T23:12:00.109Z,99338.16
2023-03-23T23:14:29.127Z,99342.69
2023-03-23T23:16:59.315Z,99330.94
2023-03-23T23:19:27.611Z,99334.81
2023-03-23T23:21:57.644Z,99327.25
2023-03-23T23:24:28.991Z,99323.25
2023-03-23T23:26:58.446Z,99307.78
2023-03-23T23:29:27.381Z,99309.72
2023-03-23T23:31:55.848Z,99304.09
2023-03-23T23:34:25.624Z,99302.66
2023-03-23T23:36:54.715Z,99301.53
2023-03-23T23:39:22.884Z,99285.78
2023-03-23T23:41:51.338Z,99298.66
2023-03-23T23:44:19.566Z,99282.06
2023-03-23T23:46:47.885Z,99278.25
2023-03-23T23:49:16.576Z,99283.69
2023-03-23T23:51:46.338Z,99281.25
2023-03-23T23:54:22.516Z,99274.19
2023-03-23T23:56:51.460Z,99264.38
2023-03-23T23:59:19.774Z,99274.84
